createdAt,value
2023-05-20T00:01:07.284Z,5.20
2023-05-20T00:03:56.361Z,5.63
2023-05-20T00:06:45.672Z,6.93
2023-05-20T00:09:34.453Z,4.03
2023-05-20T00:12:23.072Z,4.30
2023-05-20T00:15:13.189Z,5.33
2023-05-20T00:18:04.163Z,3.60
2023-05-20T00:20:54.151Z,5.10
2023-05-20T00:23:43.641Z,4.03
2023-05-20T00:26:32.320Z,4.17
2023-05-20T00:29:22.626Z,3.97
2023-05-20T00:32:11.317Z,5.10
2023-05-20T00:35:02.243Z,5.20
2023-05-20T00:37:53.373Z,3.60
2023-05-20T00:40:43.179Z,4.57
2023-05-20T00:43:31.902Z,3.57
2023-05-20T00:46:20.917Z,3.10
2023-05-20T00:49:09.764Z,5.30
2023-05-20T00:52:00.322Z,3.00
2023-05-20T00:54:51.100Z,4.20
2023-05-20T00:57:40.443Z,2.90
2023-05-20T01:00:29.241Z,5.50
2023-05-20T01:03:18.132Z,3.57
2023-05-20T01:06:08.431Z,3.77
2023-05-20T01:08:58.521Z,4.13
2023-05-20T01:11:53.919Z,4.80
2023-05-20T01:14:49.558Z,3.47
2023-05-20T01:17:45.045Z,6.50
2023-05-20T01:20:35.712Z,2.83
2023-05-20T01:23:31.923Z,4.27
2023-05-20T01:26:22.031Z,3.03
2023-05-20T01:29:13.945Z,5.70
2023-05-20T01:32:08.903Z,3.77
2023-05-20T01:34:58.973Z,3.30
2023-05-20T01:37:49.442Z,3.37
2023-05-20T01:40:41.932Z,2.47
2023-05-20T01:43:31.448Z,3.77
2023-05-20T01:46:20.228Z,3.53
2023-05-20T01:49:15.123Z,3.17
2023-05-20T01:52:03.903Z,3.10
2023-05-20T01:54:52.631Z,3.90
2023-05-20T01:57:42.779Z,5.03
2023-05-20T02:00:33.030Z,3.00
2023-05-20T02:03:22.731Z,4.13
2023-05-20T02:06:11.683Z,4.40
2023-05-20T02:09:00.405Z,6.63
2023-05-20T02:11:50.249Z,4.00
2023-05-20T02:14:40.345Z,3.63
2023-05-20T02:17:30.108Z,3.90
2023-05-20T02:20:29.627Z,3.10
2023-05-20T02:23:18.542Z,4.83
2023-05-20T02:26:12.742Z,3.37
2023-05-20T02:29:01.676Z,6.50
2023-05-20T02:31:51.741Z,4.73
2023-05-20T02:34:40.902Z,3.07
2023-05-20T02:37:29.949Z,2.63
2023-05-20T02:40:19.085Z,3.00
2023-05-20T02:43:07.855Z,3.13
2023-05-20T02:45:56.821Z,3.17
2023-05-20T02:48:47.022Z,4.43
2023-05-20T02:51:35.944Z,3.17
2023-05-20T02:54:24.814Z,3.00
2023-05-20T02:57:13.730Z,3.93
2023-05-20T03:00:02.555Z,3.10
2023-05-20T03:02:51.322Z,3.93
2023-05-20T03:05:42.635Z,3.63
2023-05-20T03:08:31.407Z,6.77
2023-05-20T03:11:20.338Z,2.80
2023-05-20T03:14:10.634Z,3.87
2023-05-20T03:17:00.226Z,3.13
2023-05-20T03:19:49.013Z,2.70
2023-05-20T03:22:41.908Z,4.00
2023-05-20T03:25:31.236Z,4.60
2023-05-20T03:28:20.222Z,4.90
2023-05-20T03:31:09.178Z,4.10
2023-05-20T03:33:57.872Z,2.80
2023-05-20T03:36:46.712Z,5.20
2023-05-20T03:39:37.092Z,3.60
2023-05-20T03:42:26.085Z,3.83
2023-05-20T03:45:14.810Z,3.67
2023-05-20T03:48:13.400Z,4.13
2023-05-20T03:51:03.526Z,6.30
2023-05-20T03:53:52.366Z,5.67
2023-05-20T03:56:42.619Z,4.37
2023-05-20T03:59:31.647Z,6.07
2023-05-20T04:02:21.479Z,3.40
2023-05-20T04:05:10.745Z,7.30
2023-05-20T04:08:00.884Z,4.90
2023-05-20T04:10:50.112Z,5.13
2023-05-20T04:13:40.245Z,14.23
2023-05-20T04:16:34.774Z,4.23
2023-05-20T04:19:24.454Z,3.50
2023-05-20T04:22:13.861Z,5.87
2023-05-20T04:25:03.744Z,4.40
2023-05-20T04:27:54.175Z,4.10
2023-05-20T04:30:45.385Z,3.87
2023-05-20T04:33:38.127Z,5.53
2023-05-20T04:36:28.913Z,5.23
2023-05-20T04:39:19.069Z,4.90
2023-05-20T04:42:07.866Z,6.23
2023-05-20T04:44:56.807Z,7.57
2023-05-20T04:47:46.950Z,4.87
2023-05-20T04:50:36.946Z,6.57
2023-05-20T04:53:28.174Z,3.40
2023-05-20T04:56:17.051Z,4.57
2023-05-20T04:59:06.298Z,7.17
2023-05-20T05:01:55.803Z,3.97
2023-05-20T05:04:46.491Z,5.40
2023-05-20T05:07:35.870Z,6.20
2023-05-20T05:10:25.288Z,6.50
2023-05-20T05:13:15.853Z,5.00
2023-05-20T05:16:05.460Z,4.27
2023-05-20T05:18:54.824Z,3.37
2023-05-20T05:21:45.854Z,4.47
2023-05-20T05:24:35.148Z,4.43
2023-05-20T05:27:24.107Z,5.40
2023-05-20T05:30:13.260Z,4.80
2023-05-20T05:33:02.379Z,4.73
2023-05-20T05:35:51.916Z,4.00
2023-05-20T05:38:42.414Z,4.43
2023-05-20T05:41:32.414Z,5.33
2023-05-20T05:44:21.643Z,4.93
2023-05-20T05:47:11.059Z,4.23
2023-05-20T05:50:00.993Z,4.17
2023-05-20T05:52:52.266Z,3.80
2023-05-20T05:55:42.500Z,3.80
2023-05-20T05:58:31.541Z,3.20
2023-05-20T06:01:20.489Z,3.47
2023-05-20T06:04:09.304Z,5.53
2023-05-20T06:06:58.628Z,3.37
2023-05-20T06:09:47.494Z,3.80
2023-05-20T06:12:37.966Z,4.37
2023-05-20T06:15:27.016Z,4.87
2023-05-20T06:18:16.148Z,4.47
2023-05-20T06:21:05.347Z,5.60
2023-05-20T06:23:54.646Z,6.57
2023-05-20T06:26:45.228Z,5.27
2023-05-20T06:29:36.005Z,3.80
2023-05-20T06:32:24.678Z,4.87
2023-05-20T06:35:15.562Z,4.67
2023-05-20T06:38:04.330Z,4.90
2023-05-20T06:40:56.087Z,3.90
2023-05-20T06:43:44.954Z,3.43
2023-05-20T06:46:55.349Z,3.63
2023-05-20T06:49:47.271Z,4.37
2023-05-20T06:52:37.194Z,3.67
2023-05-20T06:55:26.397Z,7.23
2023-05-20T06:58:15.716Z,4.63
2023-05-20T07:01:05.461Z,5.27
2023-05-20T07:03:56.171Z,4.03
2023-05-20T07:06:46.550Z,4.30
2023-05-20T07:09:35.765Z,3.97
2023-05-20T07:12:26.993Z,4.67
2023-05-20T07:15:18.039Z,4.63
2023-05-20T07:18:06.870Z,3.80
2023-05-20T07:20:58.543Z,5.03
2023-05-20T07:24:06.408Z,4.03
2023-05-20T07:26:55.131Z,4.60
2023-05-20T07:29:44.454Z,4.80
2023-05-20T07:32:33.354Z,4.13
2023-05-20T07:35:22.385Z,3.60
2023-05-20T07:38:14.650Z,4.20
2023-05-20T07:41:05.311Z,5.37
2023-05-20T07:43:56.292Z,6.43
2023-05-20T07:46:45.405Z,5.10
2023-05-20T07:49:34.705Z,4.97
2023-05-20T07:52:25.512Z,4.07
2023-05-20T07:55:16.256Z,4.73
2023-05-20T07:58:05.373Z,4.77
2023-05-20T08:00:56.570Z,4.50
2023-05-20T08:03:45.899Z,4.77
2023-05-20T08:06:38.646Z,4.97
2023-05-20T08:09:32.789Z,4.07
2023-05-20T08:12:23.658Z,5.97
2023-05-20T08:15:13.374Z,4.90
2023-05-20T08:18:02.771Z,4.30
2023-05-20T08:20:51.776Z,5.67
2023-05-20T08:23:40.753Z,5.40
2023-05-20T08:26:29.863Z,5.83
2023-05-20T08:29:20.728Z,6.20
2023-05-20T08:32:10.202Z,4.33
2023-05-20T08:35:01.746Z,5.63
2023-05-20T08:37:51.003Z,5.00
2023-05-20T08:40:39.802Z,6.77
2023-05-20T08:43:30.306Z,4.40
2023-05-20T08:46:24.452Z,4.33
2023-05-20T08:49:14.302Z,4.47
2023-05-20T08:52:04.093Z,6.03
2023-05-20T08:54:54.641Z,4.63
2023-05-20T08:57:45.922Z,4.03
2023-05-20T09:00:34.931Z,4.20
2023-05-20T09:03:26.774Z,4.10
2023-05-20T09:06:20.352Z,5.53
2023-05-20T09:09:09.220Z,6.87
2023-05-20T09:11:58.316Z,4.13
2023-05-20T09:14:47.536Z,4.97
2023-05-20T09:17:37.733Z,3.90
2023-05-20T09:20:29.424Z,5.03
2023-05-20T09:23:21.812Z,5.80
2023-05-20T09:26:10.936Z,4.40
2023-05-20T09:29:00.125Z,3.97
2023-05-20T09:31:50.153Z,4.50
2023-05-20T09:34:39.772Z,4.37
2023-05-20T09:37:30.763Z,4.53
2023-05-20T09:40:21.642Z,5.93
2023-05-20T09:43:11.468Z,4.13
2023-05-20T09:46:01.402Z,4.60
2023-05-20T09:48:50.615Z,4.43
2023-05-20T09:51:40.052Z,4.77
2023-05-20T09:54:31.275Z,4.10
2023-05-20T09:57:20.039Z,3.97
2023-05-20T10:00:10.513Z,4.97
2023-05-20T10:03:04.667Z,5.17
2023-05-20T10:06:17.434Z,4.30
2023-05-20T10:09:24.365Z,5.20
2023-05-20T10:12:25.612Z,4.20
2023-05-20T10:15:19.385Z,5.87
2023-05-20T10:18:19.681Z,5.57
2023-05-20T10:21:17.600Z,4.37
2023-05-20T10:24:10.348Z,4.83
2023-05-20T10:27:01.482Z,4.33
2023-05-20T10:29:54.370Z,4.77
2023-05-20T10:32:53.711Z,6.20
2023-05-20T10:35:51.407Z,5.13
2023-05-20T10:38:51.255Z,5.17
2023-05-20T10:41:40.053Z,4.97
2023-05-20T10:44:28.781Z,5.00
2023-05-20T10:47:25.343Z,5.47
2023-05-20T10:50:29.145Z,6.27
2023-05-20T10:53:32.323Z,4.50
2023-05-20T10:56:24.125Z,4.40
2023-05-20T10:59:13.981Z,4.10
2023-05-20T11:02:03.422Z,6.27
2023-05-20T11:04:54.261Z,3.77
2023-05-20T11:07:43.183Z,4.63
2023-05-20T11:10:32.506Z,7.47
2023-05-20T11:13:22.197Z,4.20
2023-05-20T11:16:11.651Z,6.47
2023-05-20T11:19:00.581Z,10.23
2023-05-20T11:21:51.527Z,4.03
2023-05-20T11:24:41.405Z,4.67
2023-05-20T11:27:30.363Z,4.90
2023-05-20T11:30:20.653Z,5.70
2023-05-20T11:33:14.250Z,4.30
2023-05-20T11:36:08.623Z,5.53
2023-05-20T11:39:05.638Z,8.03
2023-05-20T11:41:54.614Z,4.87
2023-05-20T11:44:46.489Z,4.70
2023-05-20T11:47:35.633Z,5.40
2023-05-20T11:50:24.311Z,4.47
2023-05-20T11:53:17.866Z,6.43
2023-05-20T11:56:09.284Z,4.57
2023-05-20T11:58:59.701Z,4.77
2023-05-20T12:01:48.414Z,3.80
2023-05-20T12:04:37.180Z,4.13
2023-05-20T12:07:26.853Z,4.57
2023-05-20T12:10:15.782Z,5.33
2023-05-20T12:13:08.689Z,5.77
2023-05-20T12:15:57.464Z,4.20
2023-05-20T12:18:46.295Z,4.60
2023-05-20T12:21:34.918Z,7.23
2023-05-20T12:24:23.631Z,4.50
2023-05-20T12:27:12.757Z,4.17
2023-05-20T12:30:03.110Z,6.83
2023-05-20T12:32:52.942Z,4.70
2023-05-20T12:35:43.281Z,4.43
2023-05-20T12:38:34.566Z,5.37
2023-05-20T12:41:23.291Z,4.07
2023-05-20T12:44:12.061Z,6.33
2023-05-20T12:47:02.252Z,4.50
2023-05-20T12:49:51.010Z,4.30
2023-05-20T12:52:39.802Z,4.07
2023-05-20T12:55:28.610Z,4.67
2023-05-20T12:58:17.362Z,4.20
2023-05-20T13:01:06.247Z,4.37
2023-05-20T13:03:56.574Z,4.70
2023-05-20T13:06:45.368Z,5.40
2023-05-20T13:09:34.658Z,4.23
2023-05-20T13:12:23.432Z,5.13
2023-05-20T13:15:12.502Z,4.97
2023-05-20T13:18:01.889Z,7.63
2023-05-20T13:20:53.169Z,5.80
2023-05-20T13:23:46.737Z,5.27
2023-05-20T13:26:35.618Z,4.17
2023-05-20T13:29:24.366Z,4.37
2023-05-20T13:32:14.076Z,5.77
2023-05-20T13:35:02.998Z,4.73
2023-05-20T13:37:53.157Z,5.37
2023-05-20T13:40:42.515Z,4.37
2023-05-20T13:43:33.257Z,5.00
2023-05-20T13:46:23.530Z,6.63
2023-05-20T13:49:12.242Z,4.47
2023-05-20T13:52:01.029Z,5.10
2023-05-20T13:54:51.571Z,4.53
2023-05-20T13:57:43.420Z,4.67
2023-05-20T14:00:32.337Z,4.60
2023-05-20T14:03:22.092Z,5.97
2023-05-20T14:06:11.046Z,5.50
2023-05-20T14:08:59.812Z,4.93
2023-05-20T14:11:52.613Z,5.60
2023-05-20T14:14:41.424Z,5.03
2023-05-20T14:17:30.253Z,5.47
2023-05-20T14:20:21.282Z,5.60
2023-05-20T14:23:10.220Z,5.63
2023-05-20T14:25:58.996Z,4.80
2023-05-20T14:28:49.749Z,5.47
2023-05-20T14:31:39.685Z,4.83
2023-05-20T14:34:29.954Z,7.53
2023-05-20T14:37:18.766Z,5.43
2023-05-20T14:40:08.697Z,6.17
2023-05-20T14:42:58.351Z,7.53
2023-05-20T14:45:49.082Z,5.00
2023-05-20T14:48:37.996Z,5.80
2023-05-20T14:51:26.895Z,5.30
2023-05-20T14:54:16.140Z,4.87
2023-05-20T14:57:06.713Z,5.70
2023-05-20T14:59:55.634Z,5.10
2023-05-20T15:02:45.791Z,4.93
2023-05-20T15:05:34.537Z,5.60
2023-05-20T15:08:23.237Z,5.13
2023-05-20T15:11:12.228Z,7.83
2023-05-20T15:14:01.093Z,5.83
2023-05-20T15:16:49.867Z,6.70
2023-05-20T15:19:41.801Z,8.80
2023-05-20T15:22:30.861Z,4.77
2023-05-20T15:25:19.779Z,5.13
2023-05-20T15:28:08.538Z,5.63
2023-05-20T15:30:57.633Z,5.40
2023-05-20T15:33:46.405Z,5.40
2023-05-20T15:36:37.139Z,5.40
2023-05-20T15:39:26.478Z,8.07
2023-05-20T15:42:18.734Z,6.03
2023-05-20T15:45:08.414Z,5.80
2023-05-20T15:47:57.336Z,5.27
2023-05-20T15:50:46.194Z,5.03
2023-05-20T15:53:37.533Z,4.83
2023-05-20T15:56:28.188Z,5.30
2023-05-20T15:59:16.954Z,5.43
2023-05-20T16:02:07.472Z,5.07
2023-05-20T16:04:56.247Z,5.57
2023-05-20T16:07:46.787Z,6.33
2023-05-20T16:10:37.105Z,5.57
2023-05-20T16:13:26.132Z,6.17
2023-05-20T16:16:15.046Z,5.50
2023-05-20T16:19:03.782Z,5.93
2023-05-20T16:21:52.477Z,6.90
2023-05-20T16:24:41.214Z,8.10
2023-05-20T16:27:31.576Z,6.87
2023-05-20T16:30:20.294Z,5.97
2023-05-20T16:33:09.043Z,5.10
2023-05-20T16:35:57.760Z,6.43
2023-05-20T16:38:46.973Z,4.87
2023-05-20T16:41:36.623Z,5.60
2023-05-20T16:44:26.687Z,5.20
2023-05-20T16:47:15.415Z,5.73
2023-05-20T16:50:04.142Z,6.10
2023-05-20T16:52:52.781Z,5.80
2023-05-20T16:55:44.261Z,5.47
2023-05-20T16:58:33.022Z,6.33
2023-05-20T17:01:23.929Z,7.27
2023-05-20T17:04:12.896Z,5.30
2023-05-20T17:07:02.217Z,5.77
2023-05-20T17:09:51.233Z,6.90
2023-05-20T17:12:40.169Z,5.60
2023-05-20T17:15:28.770Z,6.50
2023-05-20T17:18:18.875Z,5.93
2023-05-20T17:21:07.690Z,6.43
2023-05-20T17:23:56.823Z,7.13
2023-05-20T17:26:45.497Z,5.90
2023-05-20T17:29:34.183Z,5.83
2023-05-20T17:32:22.857Z,5.93
2023-05-20T17:35:12.926Z,6.40
2023-05-20T17:38:03.697Z,5.50
2023-05-20T17:40:52.320Z,6.40
2023-05-20T17:43:41.242Z,5.80
2023-05-20T17:46:30.043Z,6.17
2023-05-20T17:49:18.690Z,6.50
2023-05-20T17:52:09.064Z,6.63
2023-05-20T17:54:57.783Z,7.27
2023-05-20T17:57:46.576Z,6.40
2023-05-20T18:00:42.038Z,5.83
2023-05-20T18:03:31.113Z,9.17
2023-05-20T18:06:20.050Z,9.37
2023-05-20T18:09:10.355Z,7.20
2023-05-20T18:11:59.111Z,8.13
2023-05-20T18:14:48.056Z,8.13
2023-05-20T18:17:38.627Z,7.40
2023-05-20T18:20:28.796Z,7.97
2023-05-20T18:23:18.347Z,8.60
2023-05-20T18:26:09.286Z,7.50
2023-05-20T18:28:58.020Z,8.07
2023-05-20T18:31:46.796Z,8.83
2023-05-20T18:34:35.592Z,7.70
2023-05-20T18:37:24.443Z,9.67
2023-05-20T18:40:14.100Z,7.93
2023-05-20T18:43:04.307Z,8.07
2023-05-20T18:45:53.088Z,9.87
2023-05-20T18:48:41.822Z,8.13
2023-05-20T18:51:33.294Z,8.63
2023-05-20T18:54:22.031Z,8.47
2023-05-20T18:57:11.002Z,9.50
2023-05-20T19:00:02.478Z,8.30
2023-05-20T19:02:51.656Z,8.57
2023-05-20T19:05:40.623Z,9.57
2023-05-20T19:08:29.531Z,8.20
2023-05-20T19:11:18.533Z,9.60
2023-05-20T19:14:07.675Z,8.40
2023-05-20T19:16:58.725Z,9.20
2023-05-20T19:19:47.644Z,7.97
2023-05-20T19:22:36.463Z,9.23
2023-05-20T19:25:25.213Z,8.23
2023-05-20T19:28:15.040Z,8.90
2023-05-20T19:31:03.910Z,8.60
2023-05-20T19:33:54.151Z,9.57
2023-05-20T19:36:43.030Z,9.53
2023-05-20T19:39:31.905Z,8.63
2023-05-20T19:42:21.303Z,9.27
2023-05-20T19:45:11.237Z,9.77
2023-05-20T19:48:00.247Z,9.20
2023-05-20T19:50:50.736Z,9.50
2023-05-20T19:53:39.620Z,9.17
2023-05-20T19:56:28.414Z,10.07
2023-05-20T19:59:20.709Z,10.40
2023-05-20T20:02:09.550Z,9.67
2023-05-20T20:04:59.274Z,8.90
2023-05-20T20:07:49.625Z,9.83
2023-05-20T20:10:38.696Z,9.37
2023-05-20T20:13:27.594Z,10.13
2023-05-20T20:16:17.574Z,10.90
2023-05-20T20:19:06.838Z,9.60
2023-05-20T20:21:58.161Z,10.07
2023-05-20T20:24:49.840Z,9.40
2023-05-20T20:27:38.848Z,10.47
2023-05-20T20:30:27.920Z,11.23
2023-05-20T20:33:16.880Z,9.97
2023-05-20T20:36:06.283Z,11.87
2023-05-20T20:38:55.026Z,9.67
2023-05-20T20:41:45.222Z,10.17
2023-05-20T20:44:33.901Z,9.33
2023-05-20T20:47:23.703Z,10.67
2023-05-20T20:50:12.761Z,10.60
2023-05-20T20:53:01.457Z,10.07
2023-05-20T20:55:51.325Z,10.73
2023-05-20T20:58:41.767Z,10.47
2023-05-20T21:01:30.849Z,11.27
2023-05-20T21:04:19.717Z,10.97
2023-05-20T21:07:08.660Z,9.97
2023-05-20T21:09:57.466Z,10.77
2023-05-20T21:12:46.383Z,10.70
2023-05-20T21:15:36.833Z,10.70
2023-05-20T21:18:25.717Z,11.00
2023-05-20T21:21:15.160Z,10.57
2023-05-20T21:24:04.692Z,11.33
2023-05-20T21:26:55.681Z,11.37
2023-05-20T21:29:44.861Z,11.67
2023-05-20T21:32:35.046Z,11.80
2023-05-20T21:35:24.678Z,11.50
2023-05-20T21:38:13.848Z,12.10
2023-05-20T21:41:02.660Z,11.60
2023-05-20T21:43:51.527Z,12.07
2023-05-20T21:46:40.299Z,12.00
2023-05-20T21:49:30.648Z,12.27
2023-05-20T21:52:19.798Z,10.97
2023-05-20T21:55:12.014Z,12.03
2023-05-20T21:58:00.801Z,10.93
2023-05-20T22:00:49.724Z,11.47
2023-05-20T22:03:39.892Z,11.70
2023-05-20T22:06:30.472Z,11.40
2023-05-20T22:09:19.426Z,11.13
2023-05-20T22:12:11.183Z,11.77
2023-05-20T22:14:59.924Z,12.43
2023-05-20T22:17:48.749Z,11.50
2023-05-20T22:20:38.661Z,12.40
2023-05-20T22:23:29.532Z,12.47
2023-05-20T22:26:19.881Z,13.57
2023-05-20T22:29:08.806Z,12.73
2023-05-20T22:31:57.605Z,11.10
2023-05-20T22:34:46.501Z,11.27
2023-05-20T22:37:35.612Z,12.67
2023-05-20T22:40:25.855Z,12.43
2023-05-20T22:43:14.557Z,12.73
2023-05-20T22:46:03.455Z,12.67
2023-05-20T22:48:53.304Z,14.00
2023-05-20T22:51:42.713Z,13.10
2023-05-20T22:54:31.429Z,13.90
2023-05-20T22:57:21.986Z,13.13
2023-05-20T23:00:14.123Z,12.97
2023-05-20T23:03:03.162Z,14.00
2023-05-20T23:05:51.908Z,13.77
2023-05-20T23:08:44.708Z,13.77
2023-05-20T23:11:33.477Z,12.97
2023-05-20T23:14:24.180Z,13.57
2023-05-20T23:17:12.940Z,13.37
2023-05-20T23:20:01.883Z,12.77
2023-05-20T23:22:50.677Z,13.87
2023-05-20T23:25:39.658Z,14.67
2023-05-20T23:28:28.613Z,14.47
2023-05-20T23:31:18.892Z,14.03
2023-05-20T23:34:08.644Z,14.07
2023-05-20T23:36:57.468Z,14.23
2023-05-20T23:39:46.408Z,14.43
2023-05-20T23:42:35.182Z,13.73
2023-05-20T23:45:24.188Z,13.07
2023-05-20T23:48:14.232Z,14.17
2023-05-20T23:51:02.963Z,13.30
2023-05-20T23:53:51.673Z,13.47
2023-05-20T23:56:40.324Z,14.60
2023-05-20T23:59:29.151Z,15.70
